Weather History for Glendive, MT

Change the Weather History Date:

Tuesday, July 30, 2013

  Actual Average Record
Temperature  
Mean Temperature 65 °F -  
Max Temperature 75 °F 84 °F 102 °F (2007)
Min Temperature 55 °F 57 °F 50 °F (2004)
Growing Degree Days 15 (Base 50)    
Moisture  
Dew Point 54 °F    
Average Humidity 68    
Maximum Humidity 88    
Minimum Humidity 47    
Precipitation  
Precipitation 0.05 in - - ()
Sea Level Pressure  
Sea Level Pressure 30.13 in    
Wind  
Wind Speed 7 mph (NNE)    
Max Wind Speed 15 mph    
Max Gust Speed -    
Visibility 10 miles    
Events      
Averages and records for this station are not official NWS values.
T = Trace of Precipitation, MM = Missing Value Source: NWS Daily Summary

Daily Weather History Graph

Daily Weather History Graph

Search for Another Location

Airport:

Trip Planner

Search our weather history database for the weather conditions in past years. The results will help you decide how hot, cold, wet, or windy it might be!

Date:

Astronomy

Jul. 30, 2013 Rise Set
Actual Time 5:36 AM MDT 8:34 PM MDT
Civil Twilight 5:00 AM MDT 9:10 PM MDT
Nautical Twilight 4:14 AM MDT 9:55 PM MDT
Astronomical Twilight 3:18 AM MDT 10:51 PM MDT
Moon No Moon Rise 2:55 PM MDT (7/30)
Length of Visible Light 16h 09m
Length of Day
14h 58m
Last Quarter, 40% of the Moon is Illuminated
Jul 30
Last Quarter
Aug 6
New
Aug 14
First Quarter
Aug 20
Full
Aug 28
Last Quarter

Hourly Weather History & Observations

Time (MDT) Temp. Dew Point Humidity Pressure Visibility Wind Dir Wind Speed Gust Speed Precip Events Conditions
12:15 AM 60.8 °F 51.8 °F 72% 30.08 in 10.0 mi NNE 5.8 mph - N/A   Clear
12:35 AM 59.0 °F 51.8 °F 77% 30.08 in 10.0 mi NE 4.6 mph - N/A   Clear
12:55 AM 59.0 °F 51.8 °F 77% 30.08 in 10.0 mi NE 8.1 mph - N/A   Clear
1:15 AM 59.0 °F 51.8 °F 77% 30.08 in 10.0 mi NE 4.6 mph - N/A   Clear
1:35 AM 59.0 °F 51.8 °F 77% 30.08 in 5.0 mi Calm Calm - N/A   Clear
3:15 AM 55.4 °F 51.8 °F 88% 30.08 in 10.0 mi Calm Calm - N/A   Clear
3:35 AM 57.2 °F 51.8 °F 82% 30.08 in 10.0 mi NE 4.6 mph - N/A   Clear
3:55 AM 57.2 °F 51.8 °F 82% 30.09 in 10.0 mi NE 4.6 mph - N/A   Clear
4:15 AM 57.2 °F 51.8 °F 82% 30.09 in 10.0 mi ENE 4.6 mph - N/A   Clear
4:35 AM 57.2 °F 51.8 °F 82% 30.09 in 10.0 mi ENE 4.6 mph - N/A   Clear
4:55 AM 57.2 °F 51.8 °F 82% 30.08 in 10.0 mi ENE 4.6 mph - N/A   Partly Cloudy
5:15 AM 57.2 °F 53.6 °F 88% 30.07 in 10.0 mi East 6.9 mph - N/A   Mostly Cloudy
5:35 AM 57.2 °F 51.8 °F 82% 30.08 in 10.0 mi ENE 6.9 mph - N/A   Partly Cloudy
5:55 AM 55.4 °F 51.8 °F 88% 30.09 in 10.0 mi NNE 10.4 mph - N/A   Clear
6:15 AM 55.4 °F 51.8 °F 88% 30.10 in 10.0 mi North 9.2 mph - N/A   Clear
6:35 AM 57.2 °F 53.6 °F 88% 30.10 in 10.0 mi North 9.2 mph - N/A   Clear
6:55 AM 57.2 °F 53.6 °F 88% 30.10 in 10.0 mi NNE 10.4 mph - N/A   Partly Cloudy
7:15 AM 60.8 °F 55.4 °F 82% 30.11 in 10.0 mi NNE 9.2 mph - N/A   Partly Cloudy
7:35 AM 62.6 °F 55.4 °F 77% 30.12 in 10.0 mi NNE 12.7 mph - N/A   Partly Cloudy
7:55 AM 62.6 °F 57.2 °F 82% 30.14 in 10.0 mi NNE 11.5 mph - N/A   Partly Cloudy
8:15 AM 62.6 °F 55.4 °F 77% 30.15 in 10.0 mi NNE 10.4 mph - N/A   Mostly Cloudy
8:35 AM 62.6 °F 55.4 °F 77% 30.15 in 10.0 mi NNE 15.0 mph - N/A   Overcast
8:55 AM 64.4 °F 55.4 °F 73% 30.14 in 10.0 mi NE 13.8 mph - N/A   Mostly Cloudy
9:35 AM 66.2 °F 53.6 °F 64% 30.15 in 10.0 mi ENE 12.7 mph - N/A   Clear
9:55 AM 64.4 °F 53.6 °F 68% 30.15 in 10.0 mi NE 9.2 mph - N/A   Mostly Cloudy
10:15 AM 66.2 °F 53.6 °F 64% 30.16 in 10.0 mi East 5.8 mph - N/A   Mostly Cloudy
10:35 AM 64.4 °F 55.4 °F 73% 30.16 in 6.0 mi East 6.9 mph - 0.04 in   Mostly Cloudy
10:55 AM 62.6 °F 55.4 °F 77% 30.17 in 10.0 mi ENE 5.8 mph - 0.05 in   Overcast
11:15 AM 64.4 °F 57.2 °F 77% 30.16 in 10.0 mi NE 8.1 mph - N/A   Scattered Clouds
11:35 AM 64.4 °F 57.2 °F 77% 30.17 in 10.0 mi North 6.9 mph - N/A   Clear
11:55 AM 66.2 °F 53.6 °F 64% 30.16 in 10.0 mi East 4.6 mph - N/A   Clear
12:15 PM 68.0 °F 53.6 °F 60% 30.16 in 10.0 mi ENE 4.6 mph - N/A   Partly Cloudy
12:35 PM 69.8 °F 53.6 °F 56% 30.15 in 10.0 mi East 5.8 mph - N/A   Scattered Clouds
12:55 PM 69.8 °F 53.6 °F 56% 30.15 in 10.0 mi SSE 3.5 mph - N/A   Mostly Cloudy
1:15 PM 71.6 °F 55.4 °F 57% 30.14 in 10.0 mi East 3.5 mph - N/A   Partly Cloudy
1:35 PM 71.6 °F 55.4 °F 57% 30.14 in 10.0 mi ENE 5.8 mph - N/A   Partly Cloudy
1:55 PM 71.6 °F 53.6 °F 53% 30.14 in 10.0 mi ENE 4.6 mph - N/A   Partly Cloudy
2:35 PM 71.6 °F 53.6 °F 53% 30.14 in 10.0 mi NNW 4.6 mph - N/A   Clear
2:55 PM 73.4 °F 53.6 °F 50% 30.14 in 10.0 mi NNW 6.9 mph - N/A   Scattered Clouds
3:15 PM 73.4 °F 53.6 °F 50% 30.15 in 10.0 mi NNW 4.6 mph - N/A   Partly Cloudy
3:55 PM 75.2 °F 53.6 °F 47% 30.13 in 10.0 mi NNW 9.2 mph - N/A   Partly Cloudy
4:15 PM 75.2 °F 53.6 °F 47% 30.13 in 10.0 mi WSW 4.6 mph - N/A   Clear
4:35 PM 75.2 °F 55.4 °F 50% 30.12 in 10.0 mi NNW 9.2 mph - N/A   Mostly Cloudy
4:55 PM 73.4 °F 53.6 °F 50% 30.13 in 10.0 mi NNW 6.9 mph - N/A   Mostly Cloudy
5:15 PM 75.2 °F 55.4 °F 50% 30.13 in 10.0 mi NNW 9.2 mph - N/A   Partly Cloudy
5:35 PM 75.2 °F 53.6 °F 47% 30.13 in 10.0 mi North 11.5 mph - N/A   Clear
5:55 PM 73.4 °F 53.6 °F 50% 30.13 in 10.0 mi NW 11.5 mph - N/A   Mostly Cloudy
6:15 PM 73.4 °F 55.4 °F 53% 30.13 in 10.0 mi NNW 15.0 mph - N/A   Scattered Clouds
6:35 PM 73.4 °F 53.6 °F 50% 30.13 in 10.0 mi NNW 11.5 mph - N/A   Clear
6:55 PM 73.4 °F 53.6 °F 50% 30.14 in 10.0 mi NW 11.5 mph - N/A   Clear
7:16 PM 71.6 °F 51.8 °F 50% 30.14 in 10.0 mi NW 10.4 mph - N/A   Clear
7:35 PM 71.6 °F 51.8 °F 50% 30.15 in 10.0 mi NNW 8.1 mph - N/A   Clear
7:55 PM 69.8 °F 53.6 °F 56% 30.15 in 10.0 mi NW 8.1 mph - N/A   Clear
8:15 PM 66.2 °F 53.6 °F 64% 30.15 in 10.0 mi NNW 6.9 mph - N/A   Clear
8:35 PM 66.2 °F 51.8 °F 60% 30.16 in 10.0 mi NW 8.1 mph - N/A   Clear
8:55 PM 66.2 °F 53.6 °F 64% 30.16 in 10.0 mi NNW 6.9 mph - N/A   Clear
9:15 PM 66.2 °F 53.6 °F 64% 30.18 in 10.0 mi NW 5.8 mph - N/A   Clear
9:35 PM 64.4 °F 53.6 °F 68% 30.19 in 10.0 mi NNW 8.1 mph - N/A   Clear
10:15 PM 64.4 °F 53.6 °F 68% 30.19 in 10.0 mi NNW 3.5 mph - N/A   Clear
10:35 PM 62.6 °F 55.4 °F 77% 30.19 in 10.0 mi North 6.9 mph - N/A   Clear
11:15 PM 62.6 °F 55.4 °F 77% 30.19 in 10.0 mi NNW 10.4 mph - N/A   Clear
11:35 PM 62.6 °F 55.4 °F 77% 30.19 in 10.0 mi NNW 11.5 mph - N/A   Clear
11:55 PM 60.8 °F 51.8 °F 72% 30.20 in 10.0 mi North 10.4 mph - N/A   Clear